sensor_id;sensor_type;location;lat;lon;timestamp;P1;durP1;ratioP1;P2;durP2;ratioP2
45128;SDS011;35512;56.312;101.728;2023-04-06T00:00:52;0.70;;;0.70;;
45128;SDS011;35512;56.312;101.728;2023-04-06T00:03:21;0.60;;;0.60;;
45128;SDS011;35512;56.312;101.728;2023-04-06T00:05:51;0.60;;;0.60;;
45128;SDS011;35512;56.312;101.728;2023-04-06T00:08:20;0.55;;;0.55;;
45128;SDS011;35512;56.312;101.728;2023-04-06T00:10:50;0.60;;;0.60;;
45128;SDS011;35512;56.312;101.728;2023-04-06T00:13:19;0.60;;;0.60;;
45128;SDS011;35512;56.312;101.728;2023-04-06T00:15:48;0.60;;;0.60;;
45128;SDS011;35512;56.312;101.728;2023-04-06T00:18:17;0.60;;;0.60;;
45128;SDS011;35512;56.312;101.728;2023-04-06T00:20:47;0.60;;;0.60;;
45128;SDS011;35512;56.312;101.728;2023-04-06T00:23:16;0.60;;;0.60;;
45128;SDS011;35512;56.312;101.728;2023-04-06T00:25:45;0.60;;;0.60;;
45128;SDS011;35512;56.312;101.728;2023-04-06T00:28:14;0.50;;;0.50;;
45128;SDS011;35512;56.312;101.728;2023-04-06T00:30:43;0.60;;;0.60;;
45128;SDS011;35512;56.312;101.728;2023-04-06T00:33:11;0.50;;;0.50;;
45128;SDS011;35512;56.312;101.728;2023-04-06T00:35:40;0.50;;;0.50;;
45128;SDS011;35512;56.312;101.728;2023-04-06T00:38:09;0.55;;;0.55;;
45128;SDS011;35512;56.312;101.728;2023-04-06T00:40:38;0.50;;;0.50;;
45128;SDS011;35512;56.312;101.728;2023-04-06T00:43:07;0.45;;;0.45;;
45128;SDS011;35512;56.312;101.728;2023-04-06T00:45:39;0.50;;;0.50;;
45128;SDS011;35512;56.312;101.728;2023-04-06T00:48:09;0.40;;;0.40;;
45128;SDS011;35512;56.312;101.728;2023-04-06T00:50:38;0.50;;;0.50;;
45128;SDS011;35512;56.312;101.728;2023-04-06T00:53:06;0.50;;;0.50;;
45128;SDS011;35512;56.312;101.728;2023-04-06T00:55:35;0.50;;;0.50;;
45128;SDS011;35512;56.312;101.728;2023-04-06T00:58:04;0.40;;;0.40;;
45128;SDS011;35512;56.312;101.728;2023-04-06T01:00:43;0.40;;;0.40;;
45128;SDS011;35512;56.312;101.728;2023-04-06T01:03:17;0.50;;;0.50;;
45128;SDS011;35512;56.312;101.728;2023-04-06T01:05:47;0.50;;;0.50;;
45128;SDS011;35512;56.312;101.728;2023-04-06T01:08:23;0.60;;;0.60;;
45128;SDS011;35512;56.312;101.728;2023-04-06T01:11:04;0.50;;;0.50;;
45128;SDS011;35512;56.312;101.728;2023-04-06T01:13:33;0.50;;;0.50;;
45128;SDS011;35512;56.312;101.728;2023-04-06T01:16:04;0.50;;;0.50;;
45128;SDS011;35512;56.312;101.728;2023-04-06T01:18:56;0.50;;;0.50;;
45128;SDS011;35512;56.312;101.728;2023-04-06T01:21:29;0.50;;;0.50;;
45128;SDS011;35512;56.312;101.728;2023-04-06T01:24:30;0.40;;;0.40;;
45128;SDS011;35512;56.312;101.728;2023-04-06T01:27:17;0.40;;;0.40;;
45128;SDS011;35512;56.312;101.728;2023-04-06T01:30:22;0.40;;;0.40;;
45128;SDS011;35512;56.312;101.728;2023-04-06T01:32:56;0.40;;;0.40;;
45128;SDS011;35512;56.312;101.728;2023-04-06T01:35:36;0.40;;;0.40;;
45128;SDS011;35512;56.312;101.728;2023-04-06T01:40:43;0.40;;;0.40;;
45128;SDS011;35512;56.312;101.728;2023-04-06T01:43:12;0.40;;;0.40;;
45128;SDS011;35512;56.312;101.728;2023-04-06T01:45:56;0.40;;;0.40;;
45128;SDS011;35512;56.312;101.728;2023-04-06T01:48:31;0.40;;;0.40;;
45128;SDS011;35512;56.312;101.728;2023-04-06T01:51:06;0.50;;;0.50;;
45128;SDS011;35512;56.312;101.728;2023-04-06T01:53:43;0.43;;;0.43;;
45128;SDS011;35512;56.312;101.728;2023-04-06T01:56:12;0.40;;;0.40;;
45128;SDS011;35512;56.312;101.728;2023-04-06T01:58:47;0.50;;;0.50;;
45128;SDS011;35512;56.312;101.728;2023-04-06T02:01:17;0.40;;;0.40;;
45128;SDS011;35512;56.312;101.728;2023-04-06T02:03:53;0.40;;;0.40;;
45128;SDS011;35512;56.312;101.728;2023-04-06T02:06:23;0.40;;;0.40;;
45128;SDS011;35512;56.312;101.728;2023-04-06T02:08:53;0.50;;;0.50;;
45128;SDS011;35512;56.312;101.728;2023-04-06T02:11:22;0.40;;;0.40;;
45128;SDS011;35512;56.312;101.728;2023-04-06T02:13:55;0.40;;;0.40;;
45128;SDS011;35512;56.312;101.728;2023-04-06T02:16:48;0.45;;;0.45;;
45128;SDS011;35512;56.312;101.728;2023-04-06T02:22:12;0.40;;;0.40;;
45128;SDS011;35512;56.312;101.728;2023-04-06T02:24:41;0.50;;;0.50;;
45128;SDS011;35512;56.312;101.728;2023-04-06T02:27:10;0.40;;;0.40;;
45128;SDS011;35512;56.312;101.728;2023-04-06T02:29:39;0.40;;;0.40;;
45128;SDS011;35512;56.312;101.728;2023-04-06T02:32:08;0.50;;;0.50;;
45128;SDS011;35512;56.312;101.728;2023-04-06T02:34:37;0.40;;;0.40;;
45128;SDS011;35512;56.312;101.728;2023-04-06T02:37:06;0.40;;;0.40;;
45128;SDS011;35512;56.312;101.728;2023-04-06T02:39:36;0.40;;;0.40;;
45128;SDS011;35512;56.312;101.728;2023-04-06T02:42:08;0.40;;;0.40;;
45128;SDS011;35512;56.312;101.728;2023-04-06T02:44:37;0.40;;;0.40;;
45128;SDS011;35512;56.312;101.728;2023-04-06T02:47:08;0.40;;;0.40;;
45128;SDS011;35512;56.312;101.728;2023-04-06T02:49:39;0.40;;;0.40;;
45128;SDS011;35512;56.312;101.728;2023-04-06T02:52:08;0.40;;;0.40;;
45128;SDS011;35512;56.312;101.728;2023-04-06T02:54:38;0.40;;;0.40;;
45128;SDS011;35512;56.312;101.728;2023-04-06T02:57:07;0.40;;;0.40;;
45128;SDS011;35512;56.312;101.728;2023-04-06T02:59:41;0.40;;;0.40;;
45128;SDS011;35512;56.312;101.728;2023-04-06T03:02:16;0.40;;;0.40;;
45128;SDS011;35512;56.312;101.728;2023-04-06T03:04:46;0.50;;;0.50;;
45128;SDS011;35512;56.312;101.728;2023-04-06T03:07:24;0.40;;;0.40;;
45128;SDS011;35512;56.312;101.728;2023-04-06T03:09:54;0.40;;;0.40;;
45128;SDS011;35512;56.312;101.728;2023-04-06T03:12:23;0.40;;;0.40;;
45128;SDS011;35512;56.312;101.728;2023-04-06T03:15:10;0.40;;;0.40;;
45128;SDS011;35512;56.312;101.728;2023-04-06T03:17:44;0.40;;;0.40;;
45128;SDS011;35512;56.312;101.728;2023-04-06T03:20:29;0.40;;;0.40;;
45128;SDS011;35512;56.312;101.728;2023-04-06T03:22:58;0.40;;;0.40;;
45128;SDS011;35512;56.312;101.728;2023-04-06T03:25:30;0.40;;;0.40;;
45128;SDS011;35512;56.312;101.728;2023-04-06T03:28:03;0.40;;;0.40;;
45128;SDS011;35512;56.312;101.728;2023-04-06T03:30:37;0.40;;;0.40;;
45128;SDS011;35512;56.312;101.728;2023-04-06T03:33:06;0.40;;;0.40;;
45128;SDS011;35512;56.312;101.728;2023-04-06T03:35:43;0.40;;;0.40;;
45128;SDS011;35512;56.312;101.728;2023-04-06T03:38:12;0.40;;;0.40;;
45128;SDS011;35512;56.312;101.728;2023-04-06T03:40:41;0.40;;;0.40;;
45128;SDS011;35512;56.312;101.728;2023-04-06T03:43:10;0.40;;;0.40;;
45128;SDS011;35512;56.312;101.728;2023-04-06T03:45:40;0.40;;;0.40;;
45128;SDS011;35512;56.312;101.728;2023-04-06T03:48:09;0.40;;;0.40;;
45128;SDS011;35512;56.312;101.728;2023-04-06T03:50:38;0.40;;;0.40;;
45128;SDS011;35512;56.312;101.728;2023-04-06T03:53:07;0.40;;;0.40;;
45128;SDS011;35512;56.312;101.728;2023-04-06T03:55:36;0.40;;;0.40;;
45128;SDS011;35512;56.312;101.728;2023-04-06T03:58:05;0.40;;;0.40;;
45128;SDS011;35512;56.312;101.728;2023-04-06T04:00:34;0.40;;;0.40;;
45128;SDS011;35512;56.312;101.728;2023-04-06T04:03:04;0.40;;;0.40;;
45128;SDS011;35512;56.312;101.728;2023-04-06T04:05:33;0.40;;;0.40;;
45128;SDS011;35512;56.312;101.728;2023-04-06T04:08:02;0.40;;;0.40;;
45128;SDS011;35512;56.312;101.728;2023-04-06T04:10:31;0.40;;;0.40;;
45128;SDS011;35512;56.312;101.728;2023-04-06T04:13:01;0.40;;;0.40;;
45128;SDS011;35512;56.312;101.728;2023-04-06T04:15:30;0.40;;;0.40;;
45128;SDS011;35512;56.312;101.728;2023-04-06T04:17:59;0.50;;;0.50;;
45128;SDS011;35512;56.312;101.728;2023-04-06T04:20:28;0.50;;;0.50;;
45128;SDS011;35512;56.312;101.728;2023-04-06T04:22:57;0.40;;;0.40;;
45128;SDS011;35512;56.312;101.728;2023-04-06T04:25:27;0.40;;;0.40;;
45128;SDS011;35512;56.312;101.728;2023-04-06T04:27:55;0.40;;;0.40;;
45128;SDS011;35512;56.312;101.728;2023-04-06T04:30:26;0.40;;;0.40;;
45128;SDS011;35512;56.312;101.728;2023-04-06T04:32:54;0.40;;;0.40;;
45128;SDS011;35512;56.312;101.728;2023-04-06T04:35:24;0.40;;;0.40;;
45128;SDS011;35512;56.312;101.728;2023-04-06T04:37:53;0.40;;;0.40;;
45128;SDS011;35512;56.312;101.728;2023-04-06T04:40:22;0.40;;;0.40;;
45128;SDS011;35512;56.312;101.728;2023-04-06T04:43:03;0.30;;;0.30;;
45128;SDS011;35512;56.312;101.728;2023-04-06T04:45:34;0.40;;;0.40;;
45128;SDS011;35512;56.312;101.728;2023-04-06T04:48:15;0.40;;;0.40;;
45128;SDS011;35512;56.312;101.728;2023-04-06T04:50:51;0.40;;;0.40;;
45128;SDS011;35512;56.312;101.728;2023-04-06T04:53:24;0.40;;;0.40;;
45128;SDS011;35512;56.312;101.728;2023-04-06T04:55:59;0.40;;;0.40;;
45128;SDS011;35512;56.312;101.728;2023-04-06T04:58:28;0.40;;;0.40;;
45128;SDS011;35512;56.312;101.728;2023-04-06T05:00:59;0.40;;;0.40;;
45128;SDS011;35512;56.312;101.728;2023-04-06T05:03:29;0.40;;;0.40;;
45128;SDS011;35512;56.312;101.728;2023-04-06T05:06:03;0.40;;;0.40;;
45128;SDS011;35512;56.312;101.728;2023-04-06T05:08:36;0.40;;;0.40;;
45128;SDS011;35512;56.312;101.728;2023-04-06T05:11:05;0.40;;;0.40;;
45128;SDS011;35512;56.312;101.728;2023-04-06T05:13:38;0.40;;;0.40;;
45128;SDS011;35512;56.312;101.728;2023-04-06T05:16:13;0.40;;;0.40;;
45128;SDS011;35512;56.312;101.728;2023-04-06T05:18:42;0.40;;;0.40;;
45128;SDS011;35512;56.312;101.728;2023-04-06T05:21:11;0.40;;;0.40;;
45128;SDS011;35512;56.312;101.728;2023-04-06T05:23:54;0.40;;;0.40;;
45128;SDS011;35512;56.312;101.728;2023-04-06T05:26:24;0.40;;;0.40;;
45128;SDS011;35512;56.312;101.728;2023-04-06T05:28:58;0.40;;;0.40;;
45128;SDS011;35512;56.312;101.728;2023-04-06T05:31:32;0.40;;;0.40;;
45128;SDS011;35512;56.312;101.728;2023-04-06T05:34:01;0.40;;;0.40;;
45128;SDS011;35512;56.312;101.728;2023-04-06T05:36:33;0.40;;;0.40;;
45128;SDS011;35512;56.312;101.728;2023-04-06T05:39:07;0.40;;;0.40;;
45128;SDS011;35512;56.312;101.728;2023-04-06T05:41:44;0.40;;;0.40;;
45128;SDS011;35512;56.312;101.728;2023-04-06T05:44:15;0.40;;;0.40;;
45128;SDS011;35512;56.312;101.728;2023-04-06T05:46:48;0.40;;;0.40;;
45128;SDS011;35512;56.312;101.728;2023-04-06T05:49:18;0.40;;;0.40;;
45128;SDS011;35512;56.312;101.728;2023-04-06T05:51:47;0.40;;;0.40;;
45128;SDS011;35512;56.312;101.728;2023-04-06T05:54:15;0.40;;;0.40;;
45128;SDS011;35512;56.312;101.728;2023-04-06T05:56:44;0.40;;;0.40;;
45128;SDS011;35512;56.312;101.728;2023-04-06T05:59:15;0.40;;;0.40;;
45128;SDS011;35512;56.312;101.728;2023-04-06T06:01:46;0.40;;;0.40;;
45128;SDS011;35512;56.312;101.728;2023-04-06T06:04:17;0.40;;;0.40;;
45128;SDS011;35512;56.312;101.728;2023-04-06T06:06:48;0.38;;;0.38;;
45128;SDS011;35512;56.312;101.728;2023-04-06T06:09:20;0.40;;;0.40;;
45128;SDS011;35512;56.312;101.728;2023-04-06T06:11:59;0.40;;;0.40;;
45128;SDS011;35512;56.312;101.728;2023-04-06T06:14:29;0.40;;;0.40;;
45128;SDS011;35512;56.312;101.728;2023-04-06T06:16:58;0.40;;;0.40;;
45128;SDS011;35512;56.312;101.728;2023-04-06T06:19:28;0.30;;;0.30;;
45128;SDS011;35512;56.312;101.728;2023-04-06T06:22:01;0.40;;;0.40;;
45128;SDS011;35512;56.312;101.728;2023-04-06T06:24:32;0.40;;;0.40;;
45128;SDS011;35512;56.312;101.728;2023-04-06T06:27:01;0.40;;;0.40;;
45128;SDS011;35512;56.312;101.728;2023-04-06T06:29:33;0.30;;;0.30;;
45128;SDS011;35512;56.312;101.728;2023-04-06T06:32:02;0.40;;;0.40;;
45128;SDS011;35512;56.312;101.728;2023-04-06T06:34:31;0.40;;;0.40;;
45128;SDS011;35512;56.312;101.728;2023-04-06T06:37:04;0.40;;;0.40;;
45128;SDS011;35512;56.312;101.728;2023-04-06T06:39:36;0.40;;;0.40;;
45128;SDS011;35512;56.312;101.728;2023-04-06T06:42:05;0.40;;;0.40;;
45128;SDS011;35512;56.312;101.728;2023-04-06T06:44:48;0.30;;;0.30;;
45128;SDS011;35512;56.312;101.728;2023-04-06T06:47:17;0.30;;;0.30;;
45128;SDS011;35512;56.312;101.728;2023-04-06T06:49:46;0.40;;;0.40;;
45128;SDS011;35512;56.312;101.728;2023-04-06T06:52:15;0.40;;;0.40;;
45128;SDS011;35512;56.312;101.728;2023-04-06T06:54:44;0.40;;;0.40;;
45128;SDS011;35512;56.312;101.728;2023-04-06T06:57:13;0.38;;;0.38;;
45128;SDS011;35512;56.312;101.728;2023-04-06T06:59:41;0.40;;;0.40;;
45128;SDS011;35512;56.312;101.728;2023-04-06T07:02:11;0.40;;;0.40;;
45128;SDS011;35512;56.312;101.728;2023-04-06T07:04:41;0.40;;;0.40;;
45128;SDS011;35512;56.312;101.728;2023-04-06T07:07:10;0.30;;;0.30;;
45128;SDS011;35512;56.312;101.728;2023-04-06T07:09:39;0.30;;;0.30;;
45128;SDS011;35512;56.312;101.728;2023-04-06T07:12:08;0.40;;;0.40;;
45128;SDS011;35512;56.312;101.728;2023-04-06T07:14:37;0.40;;;0.40;;
45128;SDS011;35512;56.312;101.728;2023-04-06T07:17:06;0.40;;;0.40;;
45128;SDS011;35512;56.312;101.728;2023-04-06T07:19:35;0.40;;;0.40;;
45128;SDS011;35512;56.312;101.728;2023-04-06T07:22:05;0.30;;;0.30;;
45128;SDS011;35512;56.312;101.728;2023-04-06T07:24:34;0.38;;;0.38;;
45128;SDS011;35512;56.312;101.728;2023-04-06T07:27:03;0.30;;;0.30;;
45128;SDS011;35512;56.312;101.728;2023-04-06T07:29:32;0.30;;;0.30;;
45128;SDS011;35512;56.312;101.728;2023-04-06T07:32:01;0.30;;;0.30;;
45128;SDS011;35512;56.312;101.728;2023-04-06T07:34:32;0.40;;;0.40;;
45128;SDS011;35512;56.312;101.728;2023-04-06T07:37:04;0.30;;;0.30;;
45128;SDS011;35512;56.312;101.728;2023-04-06T07:39:34;0.30;;;0.30;;
45128;SDS011;35512;56.312;101.728;2023-04-06T07:42:04;0.30;;;0.30;;
45128;SDS011;35512;56.312;101.728;2023-04-06T07:44:33;0.30;;;0.30;;
45128;SDS011;35512;56.312;101.728;2023-04-06T07:47:03;0.40;;;0.40;;
45128;SDS011;35512;56.312;101.728;2023-04-06T07:49:32;0.40;;;0.40;;
45128;SDS011;35512;56.312;101.728;2023-04-06T07:52:02;0.30;;;0.30;;
45128;SDS011;35512;56.312;101.728;2023-04-06T07:54:33;0.35;;;0.35;;
45128;SDS011;35512;56.312;101.728;2023-04-06T07:57:02;0.40;;;0.40;;
45128;SDS011;35512;56.312;101.728;2023-04-06T07:59:31;0.30;;;0.30;;
45128;SDS011;35512;56.312;101.728;2023-04-06T08:02:00;0.30;;;0.30;;
45128;SDS011;35512;56.312;101.728;2023-04-06T08:04:30;0.30;;;0.30;;
45128;SDS011;35512;56.312;101.728;2023-04-06T08:06:59;0.30;;;0.30;;
45128;SDS011;35512;56.312;101.728;2023-04-06T08:09:28;0.30;;;0.30;;
45128;SDS011;35512;56.312;101.728;2023-04-06T08:11:57;0.30;;;0.30;;
45128;SDS011;35512;56.312;101.728;2023-04-06T08:14:26;0.30;;;0.30;;
45128;SDS011;35512;56.312;101.728;2023-04-06T08:16:55;0.30;;;0.30;;
45128;SDS011;35512;56.312;101.728;2023-04-06T08:19:24;0.30;;;0.30;;
45128;SDS011;35512;56.312;101.728;2023-04-06T08:21:53;0.30;;;0.30;;
45128;SDS011;35512;56.312;101.728;2023-04-06T08:24:22;0.30;;;0.30;;
45128;SDS011;35512;56.312;101.728;2023-04-06T08:26:51;0.30;;;0.30;;
45128;SDS011;35512;56.312;101.728;2023-04-06T08:29:21;0.30;;;0.30;;
45128;SDS011;35512;56.312;101.728;2023-04-06T08:31:49;0.30;;;0.30;;
45128;SDS011;35512;56.312;101.728;2023-04-06T08:34:18;0.30;;;0.30;;
45128;SDS011;35512;56.312;101.728;2023-04-06T08:36:47;0.30;;;0.30;;
45128;SDS011;35512;56.312;101.728;2023-04-06T08:39:16;0.30;;;0.30;;
45128;SDS011;35512;56.312;101.728;2023-04-06T08:41:45;0.30;;;0.30;;
45128;SDS011;35512;56.312;101.728;2023-04-06T08:44:15;0.30;;;0.30;;
45128;SDS011;35512;56.312;101.728;2023-04-06T08:46:45;0.30;;;0.30;;
45128;SDS011;35512;56.312;101.728;2023-04-06T08:49:14;0.30;;;0.30;;
45128;SDS011;35512;56.312;101.728;2023-04-06T08:51:44;0.30;;;0.30;;
45128;SDS011;35512;56.312;101.728;2023-04-06T08:54:14;0.40;;;0.40;;
45128;SDS011;35512;56.312;101.728;2023-04-06T08:56:43;0.30;;;0.30;;
45128;SDS011;35512;56.312;101.728;2023-04-06T08:59:13;0.40;;;0.40;;
45128;SDS011;35512;56.312;101.728;2023-04-06T09:01:42;0.32;;;0.32;;
45128;SDS011;35512;56.312;101.728;2023-04-06T09:04:14;0.30;;;0.30;;
45128;SDS011;35512;56.312;101.728;2023-04-06T09:06:44;0.40;;;0.40;;
45128;SDS011;35512;56.312;101.728;2023-04-06T09:09:13;0.40;;;0.40;;
45128;SDS011;35512;56.312;101.728;2023-04-06T09:11:46;0.40;;;0.40;;
45128;SDS011;35512;56.312;101.728;2023-04-06T09:14:36;0.30;;;0.30;;
45128;SDS011;35512;56.312;101.728;2023-04-06T09:17:05;0.40;;;0.40;;
45128;SDS011;35512;56.312;101.728;2023-04-06T09:19:44;0.40;;;0.40;;
45128;SDS011;35512;56.312;101.728;2023-04-06T09:22:14;0.30;;;0.30;;
45128;SDS011;35512;56.312;101.728;2023-04-06T09:24:44;0.30;;;0.30;;
45128;SDS011;35512;56.312;101.728;2023-04-06T09:27:29;0.30;;;0.30;;
45128;SDS011;35512;56.312;101.728;2023-04-06T09:30:03;0.40;;;0.40;;
45128;SDS011;35512;56.312;101.728;2023-04-06T09:32:49;0.30;;;0.30;;
45128;SDS011;35512;56.312;101.728;2023-04-06T09:35:20;0.32;;;0.32;;
45128;SDS011;35512;56.312;101.728;2023-04-06T09:37:50;0.30;;;0.30;;
45128;SDS011;35512;56.312;101.728;2023-04-06T09:40:19;0.40;;;0.40;;
45128;SDS011;35512;56.312;101.728;2023-04-06T09:42:50;0.40;;;0.40;;
45128;SDS011;35512;56.312;101.728;2023-04-06T09:45:25;0.40;;;0.40;;
45128;SDS011;35512;56.312;101.728;2023-04-06T09:47:58;0.30;;;0.30;;
45128;SDS011;35512;56.312;101.728;2023-04-06T09:50:29;0.30;;;0.30;;
45128;SDS011;35512;56.312;101.728;2023-04-06T09:52:58;0.30;;;0.30;;
45128;SDS011;35512;56.312;101.728;2023-04-06T09:55:30;0.30;;;0.30;;
45128;SDS011;35512;56.312;101.728;2023-04-06T09:58:17;0.35;;;0.35;;
45128;SDS011;35512;56.312;101.728;2023-04-06T10:00:59;0.40;;;0.40;;
45128;SDS011;35512;56.312;101.728;2023-04-06T10:06:20;0.40;;;0.40;;
45128;SDS011;35512;56.312;101.728;2023-04-06T10:08:53;0.30;;;0.30;;
45128;SDS011;35512;56.312;101.728;2023-04-06T10:11:24;0.30;;;0.30;;
45128;SDS011;35512;56.312;101.728;2023-04-06T10:13:54;0.30;;;0.30;;
45128;SDS011;35512;56.312;101.728;2023-04-06T10:16:23;0.35;;;0.35;;
45128;SDS011;35512;56.312;101.728;2023-04-06T10:18:55;0.30;;;0.30;;
45128;SDS011;35512;56.312;101.728;2023-04-06T10:21:29;0.30;;;0.30;;
45128;SDS011;35512;56.312;101.728;2023-04-06T10:24:02;0.30;;;0.30;;
45128;SDS011;35512;56.312;101.728;2023-04-06T10:26:35;0.40;;;0.40;;
45128;SDS011;35512;56.312;101.728;2023-04-06T10:29:04;0.30;;;0.30;;
45128;SDS011;35512;56.312;101.728;2023-04-06T10:31:39;0.30;;;0.30;;
45128;SDS011;35512;56.312;101.728;2023-04-06T10:34:11;0.30;;;0.30;;
45128;SDS011;35512;56.312;101.728;2023-04-06T10:36:40;0.40;;;0.40;;
45128;SDS011;35512;56.312;101.728;2023-04-06T10:39:09;0.30;;;0.30;;
45128;SDS011;35512;56.312;101.728;2023-04-06T10:41:44;0.30;;;0.30;;
45128;SDS011;35512;56.312;101.728;2023-04-06T10:44:25;0.40;;;0.40;;
45128;SDS011;35512;56.312;101.728;2023-04-06T10:46:56;0.40;;;0.40;;
45128;SDS011;35512;56.312;101.728;2023-04-06T10:49:28;0.30;;;0.30;;
45128;SDS011;35512;56.312;101.728;2023-04-06T10:51:57;0.30;;;0.30;;
45128;SDS011;35512;56.312;101.728;2023-04-06T10:54:26;0.30;;;0.30;;
45128;SDS011;35512;56.312;101.728;2023-04-06T10:56:56;0.30;;;0.30;;
45128;SDS011;35512;56.312;101.728;2023-04-06T10:59:25;0.40;;;0.40;;
45128;SDS011;35512;56.312;101.728;2023-04-06T11:01:57;0.30;;;0.30;;
45128;SDS011;35512;56.312;101.728;2023-04-06T11:04:27;0.30;;;0.30;;
45128;SDS011;35512;56.312;101.728;2023-04-06T11:06:56;0.30;;;0.30;;
45128;SDS011;35512;56.312;101.728;2023-04-06T11:09:29;0.40;;;0.40;;
45128;SDS011;35512;56.312;101.728;2023-04-06T11:12:03;0.40;;;0.40;;
45128;SDS011;35512;56.312;101.728;2023-04-06T11:14:32;0.40;;;0.40;;
45128;SDS011;35512;56.312;101.728;2023-04-06T11:17:01;0.30;;;0.30;;
45128;SDS011;35512;56.312;101.728;2023-04-06T11:19:31;0.30;;;0.30;;
45128;SDS011;35512;56.312;101.728;2023-04-06T11:22:06;0.30;;;0.30;;
45128;SDS011;35512;56.312;101.728;2023-04-06T11:24:36;0.32;;;0.32;;
45128;SDS011;35512;56.312;101.728;2023-04-06T11:27:05;0.32;;;0.32;;
45128;SDS011;35512;56.312;101.728;2023-04-06T11:29:34;0.40;;;0.40;;
45128;SDS011;35512;56.312;101.728;2023-04-06T11:32:06;0.30;;;0.30;;
45128;SDS011;35512;56.312;101.728;2023-04-06T11:34:39;0.40;;;0.40;;
45128;SDS011;35512;56.312;101.728;2023-04-06T11:37:09;0.30;;;0.30;;
45128;SDS011;35512;56.312;101.728;2023-04-06T11:39:40;0.30;;;0.30;;
45128;SDS011;35512;56.312;101.728;2023-04-06T11:42:20;0.30;;;0.30;;
45128;SDS011;35512;56.312;101.728;2023-04-06T11:44:51;0.40;;;0.40;;
45128;SDS011;35512;56.312;101.728;2023-04-06T11:47:29;0.30;;;0.30;;
45128;SDS011;35512;56.312;101.728;2023-04-06T11:52:38;0.40;;;0.40;;
45128;SDS011;35512;56.312;101.728;2023-04-06T11:55:18;0.40;;;0.40;;
45128;SDS011;35512;56.312;101.728;2023-04-06T11:57:47;0.40;;;0.40;;
45128;SDS011;35512;56.312;101.728;2023-04-06T12:00:18;0.40;;;0.40;;
45128;SDS011;35512;56.312;101.728;2023-04-06T12:02:48;0.40;;;0.40;;
45128;SDS011;35512;56.312;101.728;2023-04-06T12:05:18;0.40;;;0.40;;
45128;SDS011;35512;56.312;101.728;2023-04-06T12:07:47;0.30;;;0.30;;
45128;SDS011;35512;56.312;101.728;2023-04-06T12:10:16;0.40;;;0.40;;
45128;SDS011;35512;56.312;101.728;2023-04-06T12:12:44;0.40;;;0.40;;
45128;SDS011;35512;56.312;101.728;2023-04-06T12:15:14;0.40;;;0.40;;
45128;SDS011;35512;56.312;101.728;2023-04-06T12:17:43;0.40;;;0.40;;
45128;SDS011;35512;56.312;101.728;2023-04-06T12:20:12;0.40;;;0.40;;
45128;SDS011;35512;56.312;101.728;2023-04-06T12:22:53;0.40;;;0.40;;
45128;SDS011;35512;56.312;101.728;2023-04-06T12:25:22;0.38;;;0.38;;
45128;SDS011;35512;56.312;101.728;2023-04-06T12:27:51;0.40;;;0.40;;
45128;SDS011;35512;56.312;101.728;2023-04-06T12:30:20;0.40;;;0.40;;
45128;SDS011;35512;56.312;101.728;2023-04-06T12:32:50;0.40;;;0.40;;
45128;SDS011;35512;56.312;101.728;2023-04-06T12:35:19;0.30;;;0.30;;
45128;SDS011;35512;56.312;101.728;2023-04-06T12:37:48;0.40;;;0.40;;
45128;SDS011;35512;56.312;101.728;2023-04-06T12:40:18;0.40;;;0.40;;
45128;SDS011;35512;56.312;101.728;2023-04-06T12:42:47;0.40;;;0.40;;
45128;SDS011;35512;56.312;101.728;2023-04-06T12:45:16;0.40;;;0.40;;
45128;SDS011;35512;56.312;101.728;2023-04-06T12:47:45;0.40;;;0.40;;
45128;SDS011;35512;56.312;101.728;2023-04-06T12:50:14;0.40;;;0.40;;
45128;SDS011;35512;56.312;101.728;2023-04-06T12:52:43;0.40;;;0.40;;
45128;SDS011;35512;56.312;101.728;2023-04-06T12:55:13;0.35;;;0.35;;
45128;SDS011;35512;56.312;101.728;2023-04-06T12:57:42;0.40;;;0.40;;
45128;SDS011;35512;56.312;101.728;2023-04-06T13:00:11;0.40;;;0.40;;
45128;SDS011;35512;56.312;101.728;2023-04-06T13:02:41;0.32;;;0.32;;
45128;SDS011;35512;56.312;101.728;2023-04-06T13:05:15;0.40;;;0.40;;
45128;SDS011;35512;56.312;101.728;2023-04-06T13:07:46;0.40;;;0.40;;
45128;SDS011;35512;56.312;101.728;2023-04-06T13:10:15;0.40;;;0.40;;
45128;SDS011;35512;56.312;101.728;2023-04-06T13:12:44;0.40;;;0.40;;
45128;SDS011;35512;56.312;101.728;2023-04-06T13:15:13;0.30;;;0.30;;
45128;SDS011;35512;56.312;101.728;2023-04-06T13:17:43;0.40;;;0.40;;
45128;SDS011;35512;56.312;101.728;2023-04-06T13:20:12;0.40;;;0.40;;
45128;SDS011;35512;56.312;101.728;2023-04-06T13:22:41;0.40;;;0.40;;
45128;SDS011;35512;56.312;101.728;2023-04-06T13:25:09;0.30;;;0.30;;
45128;SDS011;35512;56.312;101.728;2023-04-06T13:27:38;0.40;;;0.40;;
45128;SDS011;35512;56.312;101.728;2023-04-06T13:30:07;0.40;;;0.40;;
45128;SDS011;35512;56.312;101.728;2023-04-06T13:32:37;0.40;;;0.40;;
45128;SDS011;35512;56.312;101.728;2023-04-06T13:35:06;0.40;;;0.40;;
45128;SDS011;35512;56.312;101.728;2023-04-06T13:37:35;0.40;;;0.40;;
45128;SDS011;35512;56.312;101.728;2023-04-06T13:40:04;0.40;;;0.40;;
45128;SDS011;35512;56.312;101.728;2023-04-06T13:42:34;0.40;;;0.40;;
45128;SDS011;35512;56.312;101.728;2023-04-06T13:45:12;0.40;;;0.40;;
45128;SDS011;35512;56.312;101.728;2023-04-06T13:47:41;0.40;;;0.40;;
45128;SDS011;35512;56.312;101.728;2023-04-06T13:50:10;0.40;;;0.40;;
45128;SDS011;35512;56.312;101.728;2023-04-06T13:52:39;0.30;;;0.30;;
45128;SDS011;35512;56.312;101.728;2023-04-06T13:55:08;0.40;;;0.40;;
45128;SDS011;35512;56.312;101.728;2023-04-06T13:57:38;0.40;;;0.40;;
45128;SDS011;35512;56.312;101.728;2023-04-06T14:00:08;0.40;;;0.40;;
45128;SDS011;35512;56.312;101.728;2023-04-06T14:02:40;0.40;;;0.40;;
45128;SDS011;35512;56.312;101.728;2023-04-06T14:05:10;0.40;;;0.40;;
45128;SDS011;35512;56.312;101.728;2023-04-06T14:07:39;0.40;;;0.40;;
45128;SDS011;35512;56.312;101.728;2023-04-06T14:10:08;0.40;;;0.40;;
45128;SDS011;35512;56.312;101.728;2023-04-06T14:12:42;0.40;;;0.40;;
45128;SDS011;35512;56.312;101.728;2023-04-06T14:15:12;0.40;;;0.40;;
45128;SDS011;35512;56.312;101.728;2023-04-06T14:17:41;0.40;;;0.40;;
45128;SDS011;35512;56.312;101.728;2023-04-06T14:20:10;0.32;;;0.32;;
45128;SDS011;35512;56.312;101.728;2023-04-06T14:22:42;0.40;;;0.40;;
45128;SDS011;35512;56.312;101.728;2023-04-06T14:25:11;0.40;;;0.40;;
45128;SDS011;35512;56.312;101.728;2023-04-06T14:27:40;0.40;;;0.40;;
45128;SDS011;35512;56.312;101.728;2023-04-06T14:30:10;0.40;;;0.40;;
45128;SDS011;35512;56.312;101.728;2023-04-06T14:32:39;0.30;;;0.30;;
45128;SDS011;35512;56.312;101.728;2023-04-06T14:35:09;0.40;;;0.40;;
45128;SDS011;35512;56.312;101.728;2023-04-06T14:37:38;0.40;;;0.40;;
45128;SDS011;35512;56.312;101.728;2023-04-06T14:40:07;0.30;;;0.30;;
45128;SDS011;35512;56.312;101.728;2023-04-06T14:42:37;0.40;;;0.40;;
45128;SDS011;35512;56.312;101.728;2023-04-06T14:45:06;0.30;;;0.30;;
45128;SDS011;35512;56.312;101.728;2023-04-06T14:47:35;0.40;;;0.40;;
45128;SDS011;35512;56.312;101.728;2023-04-06T14:50:04;0.30;;;0.30;;
45128;SDS011;35512;56.312;101.728;2023-04-06T14:52:34;0.40;;;0.40;;
45128;SDS011;35512;56.312;101.728;2023-04-06T14:55:03;0.40;;;0.40;;